KEWB/EWB METAR and TAF weather

Enter ICAO airport designator
Station Type Date Time Source
KEWB METAR 2019/08/22 04:38 UTC NOAA

KEWB 220438Z AUTO 25009KT 10SM BKN017 25/22 A2986 RMK AO2 T02500217


Station Type Date Time Source
KEWB Decoded METAR 2019/08/22 04:38 UTC NOAA

Station name not available
Aug 22, 2019 - 12:38 AM EDT / 2019.08.22 0438 UTC
Wind: from the WSW (250 degrees) at 10 MPH (9 KT):0
Visibility: 10 mile(s):0
Sky conditions: mostly cloudy
Temperature: 77.0 F (25.0 C)
Dew Point: 71.1 F (21.7 C)
Relative Humidity: 81%
Pressure (altimeter): 29.86 in. Hg (1011 hPa)
ob: KEWB 220438Z AUTO 25009KT 10SM BKN017 25/22 A2986 RMK AO2 T02500217
cycle: 4

Station Type Date Time Source
KEWB TAF UTC NOAA

Error!

Example: see airport list